KBQK/BQK METAR and TAF weather

Enter ICAO airport designator
Station Type Date Time Source
KBQK METAR 2024/06/14 03:15 UTC NOAA

KBQK 140315Z AUTO 02006KT 7SM CLR 25/23 A2992 RMK AO2 T02510232


Station Type Date Time Source
KBQK Decoded METAR 2024/06/14 03:15 UTC NOAA

Brunswick / Glynco, GA, United States (KBQK) 31-15N 081-28W
Jun 13, 2024 - 11:15 PM EDT / 2024.06.14 0315 UTC
Wind: from the NNE (020 degrees) at 7 MPH (6 KT):0
Visibility: 7 mile(s):0
Sky conditions: clear
Temperature: 77.2 F (25.1 C)
Dew Point: 73.8 F (23.2 C)
Relative Humidity: 89%
Pressure (altimeter): 29.92 in. Hg (1013 hPa)
ob: KBQK 140315Z AUTO 02006KT 7SM CLR 25/23 A2992 RMK AO2 T02510232
cycle: 3

Station Type Date Time Source
KBQK TAF UTC NOAA

Error!

Example: see airport list